Cambria, CA (93428)

7:44 AM PDT on October 02, 2014 (GMT -0700)
Berwick Heights | Change Station
CLOSE
Current Station
Personal Weather Station
Location: Cambria, CA
Elevation: 387 ft
Nearby Weather Stations
Active Advisory: Special Statement

Elev 387 ft 35.55 °N, 121.08 °W | Updated 9 seconds ago

Clear
Clear
75.7 °F
Feels Like 77 °F
N
0.9
Wind Variable Wind from ENE
Gusts 5.0 mph

Today
High -- | Low -- °F
--% Chance of Precip.
Yesterday
High -- | Low -- °F
Precip. -- in
7:00 AM 6:46 PM
First Quarter, 59% visible
Pressure 30.01 in
Visibility 10.0 miles
Clouds Clear
Heat Index 77 °F
Dew Point 45 °F
Humidity 33%
Rainfall 0.00 in
Snow Depth 0 in , 0 in , 1 in
UV 0 out of 12
Pollen 5.40 out of 12
Air Quality Not available.
Flu Activity Not available.
METAR KPRB 021353Z AUTO 00000KT 10SM CLR 10/03 A3002 RMK AO2 SLP160 T01000028 TSNO

More Conditions Fewer Conditions

Pressure 30.01 in
Visibility 10.0 miles
Clouds Clear
Heat Index 77 °F
Dew Point 45 °F
Humidity 33%
Rainfall 0.00 in
Snow Depth 0 in , 0 in , 1 in
UV 0 out of 12
Pollen 5.40 out of 12
Air Quality Not available.
Flu Activity Not available.
METAR KPRB 021353Z AUTO 00000KT 10SM CLR 10/03 A3002 RMK AO2 SLP160 T01000028 TSNO

More Conditions Fewer Conditions

10-Day Weather Forecast

Almanac

Astronomy

Oct. 02, 2014 Rise Set
Actual Time 7:00 AM PDT 6:46 PM PDT
Civil Twilight 6:34 AM PDT 7:11 PM PDT
Nautical Twilight 6:05 AM PDT 7:41 PM PDT
Astronomical Twilight 5:35 AM PDT 8:11 PM PDT
Moon 2:46 PM PDT 12:33 AM PDT
Length of Visible Light 12h 37m
Length of Day
11h 46m
Tomorrow will be 2m 14s shorter.
First Quarter, 59% of the Moon is Illuminated
Today
First Quarter
Oct 8
Full
Oct 15
Last Quarter
Oct 23
New
Oct 30
First Quarter

Today's Extremes

State Highs State Lows

Community

WunderPhotos

Upload Photos

1,758,257 photos uploaded!

WunderBlogs® & News

By Dr. Jeff Masters
Director of Meteorology, Weather Underground
By Kari Strenfel
Meteorologist, Weather Underground
By Christopher C. Burt
Weather Historian, Weather Underground
October 2, 2014
October 2, 2014
October 2, 2014

Nearby

Snow Depth

Station Depth Elevation
Fallen Leaf 0 in 6300 ft
Hagan's Meadow 1 in 8000 ft
Poison Flat 0 in 7900 ft
Truckee #2 0 in 6400 ft
Spratt Creek 1 in 6200 ft

Earthquake Activity

City Distance Mag. Time & Date
South Dos Palos, California 75 miles 3.0 11:17 AM PDT
2014-10-01
Shandon, California 44 miles 2.9 5:34 PM PDT
2014-09-30
East Foothills, California 137 miles 2.6 3:34 PM PDT
2014-09-30
South Dos Palos, California 75 miles 2.7 3:08 PM PDT
2014-09-30
Minimum magnitude displayed is 2.5.

Coastal Water Temperatures

Place Temperature
No Stations Reporting

Nearby Weather Stations